Data for 10/02/2018

Time Sea-Level Adjusted Pressure Absolute Pressure Temperature Relative Humidity Dew Point   
(mb) (inHg) (mb) (inHg) (C) (F) (%) (C) (F)
00:05 1016 30 845 24.95 12.1 53.8 42 -0.5 31.2
00:10 1016 30 845 24.95 12.2 53.9 42 -0.2 31.6
00:15 1016 30 845 24.95 12.2 54 41 -0.5 31.2
00:20 1016 30 845 24.95 12.1 53.8 43 -0.1 31.8
00:25 1016 30 845 24.95 11.9 53.4 44 0.2 32.3
00:30 1016 30 845 24.95 11.7 53.1 44 -0 31.9
00:35 1016 30 845 24.95 11.7 53.1 45 0.3 32.5
00:40 1016 30 845 24.95 11.6 52.8 46 0.6 33
00:45 1015 29.97 845 24.95 11.5 52.6 47 0.6 33.1
00:50 1015 29.97 845 24.95 11.4 52.5 46 0.1 32.2
00:55 1015 29.97 845 24.95 11.5 52.8 46 0.4 32.8
01:00 1015 29.97 845 24.95 11.4 52.6 48 0.8 33.4
01:05 1015 29.97 844 24.92 11.3 52.3 49 1.1 34
01:10 1015 29.97 844 24.92 11.3 52.3 46 0 32.1
01:15 1015 29.97 844 24.92 11.6 52.8 46 0.3 32.5
01:20 1015 29.97 844 24.92 11.5 52.7 46 0.5 32.8
01:25 1015 29.97 844 24.92 11.2 52.1 50 1.1 33.9
01:30 1015 29.97 844 24.92 10.9 51.7 49 0.8 33.5
01:35 1015 29.97 844 24.92 11 51.7 46 -0.2 31.7
01:40 1015 29.97 844 24.92 11.5 52.7 46 0.3 32.6
01:45 1015 29.97 844 24.92 11.4 52.5 47 0.7 33.2
01:50 1015 29.97 844 24.92 11.2 52.2 48 0.6 33
01:55 1015 29.97 844 24.92 11.3 52.4 46 0.3 32.6
02:00 1015 29.97 844 24.92 11.3 52.3 49 0.9 33.6
02:05 1015 29.97 844 24.92 11 51.8 50 1.1 33.9
02:10 1015 29.97 844 24.92 10.9 51.6 51 1.1 33.9
02:15 1015 29.97 844 24.92 10.7 51.2 53 1.5 34.8
02:20 1015 29.97 844 24.92 10.4 50.8 52 1 33.8
02:25 1015 29.97 844 24.92 10.5 50.9 52 1.1 33.9
02:30 1015 29.97 844 24.92 10.6 51.2 49 0.5 32.9
02:35 1015 29.97 844 24.92 11 51.8 48 0.4 32.8
02:40 1015 29.97 844 24.92 11 51.7 49 0.8 33.4
02:45 1015 29.97 844 24.92 10.9 51.6 50 0.8 33.5
02:50 1015 29.97 844 24.92 11 51.8 46 -0.1 31.9
02:55 1015 29.97 844 24.92 11.2 52.1 48 0.7 33.2
03:00 1015 29.97 844 24.92 11.3 52.3 43 -0.8 30.5
03:05 1015 29.97 844 24.92 11.7 53.1 43 -0.4 31.2
03:10 1015 29.97 844 24.92 11.7 53 47 0.9 33.7
03:15 1015 29.97 844 24.92 11 51.8 52 1.5 34.7
03:20 1015 29.97 844 24.92 10.3 50.6 56 2 35.5
03:25 1015 29.97 844 24.92 10 50 56 1.8 35.2
03:30 1015 29.97 844 24.92 10.2 50.3 53 1.2 34.1
03:35 1015 29.97 844 24.92 10.3 50.5 52 1 33.8
03:40 1015 29.97 844 24.92 10.3 50.5 50 0.3 32.6
03:45 1015 29.97 844 24.92 10.9 51.6 50 0.9 33.6
03:50 1015 29.97 844 24.92 10.7 51.2 50 0.7 33.2
03:55 1014 29.94 844 24.92 10.6 51 48 0 32
04:00 1014 29.94 844 24.92 11 51.8 46 -0.1 31.9
04:05 1015 29.97 844 24.92 11.1 52 47 0.3 32.6
04:10 1015 29.97 844 24.92 10.8 51.4 53 1.6 34.9
04:15 1015 29.97 844 24.92 10.6 51 50 0.8 33.4
04:20 1014 29.94 844 24.92 10.6 51 53 1.6 34.8
04:25 1014 29.94 844 24.92 10.2 50.3 55 1.6 34.9
04:30 1014 29.94 843 24.89 10.2 50.3 50 0.3 32.5
04:35 1014 29.94 843 24.89 10.6 51 51 1 33.8
04:40 1014 29.94 843 24.89 10.4 50.8 50 0.6 33
04:45 1014 29.94 843 24.89 10.6 51.1 49 0.3 32.5
04:50 1014 29.94 843 24.89 10.8 51.4 48 0.3 32.6
04:55 1014 29.94 843 24.89 10.9 51.7 47 0.1 32.3
05:00 1014 29.94 843 24.89 11.3 52.3 44 -0.4 31.2
05:05 1014 29.94 843 24.89 11.7 53 42 -0.7 30.8
05:10 1014 29.94 843 24.89 11.9 53.4 40 -1.1 30.1
05:15 1014 29.94 843 24.89 12.8 55 38 -1.1 29.9
05:20 1014 29.94 843 24.89 13.5 56.4 38 -0.6 30.9
05:25 1014 29.94 843 24.89 13.2 55.8 40 -0.1 31.9
05:30 1014 29.94 843 24.89 12.8 55 40 -0.6 31
05:35 1014 29.94 843 24.89 12.8 55.1 42 0.1 32.3
05:40 1014 29.94 843 24.89 13 55.4 39 -0.6 31
05:45 1014 29.94 843 24.89 13.8 56.8 38 -0.2 31.7
05:50 1014 29.94 843 24.89 13.7 56.7 40 0.3 32.6
05:55 1014 29.94 843 24.89 13.4 56.1 41 0.3 32.6
06:00 1014 29.94 843 24.89 13.4 56 40 0.1 32.1
06:05 1014 29.94 843 24.89 13.6 56.4 40 0.1 32.3
06:10 1014 29.94 843 24.89 13.8 56.9 39 0 32.1
06:15 1014 29.94 843 24.89 14.1 57.4 37 -0.2 31.7
06:20 1013 29.91 843 24.89 14.2 57.5 38 0.1 32.2
06:25 1013 29.91 843 24.89 13.8 56.9 38 -0.1 31.9
06:30 1013 29.91 843 24.89 14 57.2 38 -0.1 31.7
06:35 1013 29.91 843 24.89 14.1 57.5 36 -0.4 31.2
06:40 1013 29.91 843 24.89 14.4 57.9 39 0.9 33.6
06:45 1013 29.91 843 24.89 13.9 57.1 39 0.4 32.8
06:50 1013 29.91 843 24.89 13.8 56.9 41 0.7 33.3
06:55 1013 29.91 843 24.89 13.8 56.8 42 1.1 34
07:00 1013 29.91 843 24.89 13.5 56.2 44 1.5 34.7
07:05 1014 29.94 843 24.89 12.9 55.3 44 1 33.7
07:10 1013 29.91 843 24.89 12.7 54.9 44 1 33.7
07:15 1013 29.91 843 24.89 12.7 54.8 43 0.6 33
07:20 1013 29.91 843 24.89 12.7 54.8 41 -0.2 31.6
07:25 1014 29.94 843 24.89 13 55.3 42 0.3 32.5
07:30 1013 29.91 843 24.89 13.2 55.8 42 0.6 33.1
07:35 1013 29.91 843 24.89 13.3 56 40 0.2 32.3
07:40 1013 29.91 843 24.89 13.5 56.3 38 -0.5 31.2
07:45 1013 29.91 843 24.89 14.1 57.5 37 -0.1 31.8
07:50 1013 29.91 843 24.89 14.5 58.1 37 -0.1 31.8
07:55 1013 29.91 843 24.89 14.6 58.2 37 0.2 32.4
08:00 1013 29.91 843 24.89 14.5 58.1 37 0.2 32.4
08:05 1013 29.91 843 24.89 14.2 57.6 37 -0.1 31.8
08:10 1013 29.91 843 24.89 14.4 58 38 0.5 32.9
08:15 1013 29.91 843 24.89 14.4 57.9 42 1.7 35.1
08:20 1013 29.91 843 24.89 14.3 57.7 38 0.3 32.5
08:25 1014 29.94 843 24.89 14.2 57.6 40 1 33.7
08:30 1014 29.94 843 24.89 14.3 57.7 38 0.3 32.5
08:35 1014 29.94 843 24.89 14.7 58.5 35 -0.3 31.4
08:40 1014 29.94 843 24.89 16.4 61.5 30 -0.9 30.3
08:45 1014 29.94 843 24.89 17 62.5 32 0.2 32.3
08:50 1014 29.94 843 24.89 16.6 61.8 33 0.5 32.9
08:55 1014 29.94 843 24.89 16.3 61.4 33 0.2 32.4
09:00 1014 29.94 843 24.89 16.6 61.8 32 -0.2 31.7
09:05 1014 29.94 843 24.89 16.8 62.3 33 0.4 32.7
09:10 1014 29.94 843 24.89 16.7 62 33 0.4 32.7
09:15 1014 29.94 843 24.89 16.5 61.8 34 0.6 33
09:20 1014 29.94 843 24.89 16.3 61.4 34 0.7 33.3
09:25 1014 29.94 843 24.89 16.1 61 36 1 33.9
09:30 1014 29.94 843 24.89 16 60.7 37 1.2 34.2
09:35 1014 29.94 843 24.89 15.8 60.5 37 1.3 34.4
09:40 1014 29.94 843 24.89 15.8 60.4 36 0.7 33.2
09:45 1014 29.94 843 24.89 15.9 60.7 34 0.2 32.4
09:50 1013 29.91 843 24.89 16.4 61.5 33 0 32.1
09:55 1013 29.91 843 24.89 16.6 61.8 33 0.4 32.6
10:00 1013 29.91 843 24.89 16.4 61.6 36 1.4 34.5
10:05 1013 29.91 843 24.89 16.2 61.2 35 0.8 33.5
10:10 1013 29.91 843 24.89 16.1 60.9 36 1 33.8
10:15 1013 29.91 843 24.89 16.1 61 38 2 35.7
10:20 1013 29.91 843 24.89 16 60.8 40 2.6 36.6
10:25 1013 29.91 842 24.86 15.9 60.6 39 2.2 35.9
10:30 1013 29.91 842 24.86 15.7 60.2 39 1.9 35.5
10:35 1013 29.91 842 24.86 15.6 60.1 40 2.3 36.1
10:40 1013 29.91 842 24.86 15.6 60.1 41 2.4 36.4
10:45 1013 29.91 842 24.86 15.8 60.5 38 1.7 35
10:50 1013 29.91 842 24.86 16.3 61.3 37 1.6 34.9
10:55 1013 29.91 842 24.86 16.5 61.7 36 1.4 34.6
11:00 1013 29.91 842 24.86 16.7 62 35 1.2 34.1
11:05 1013 29.91 842 24.86 16.9 62.4 34 1.1 33.9
11:10 1013 29.91 842 24.86 16.9 62.4 35 1.4 34.4
11:15 1013 29.91 842 24.86 17 62.5 35 1.3 34.4
11:20 1013 29.91 842 24.86 17 62.6 35 1.4 34.5
11:25 1013 29.91 842 24.86 17 62.5 34 1.2 34.2
11:30 1013 29.91 842 24.86 16.9 62.5 36 1.7 35.1
11:35 1013 29.91 842 24.86 16.9 62.5 35 1.4 34.5
11:40 1013 29.91 842 24.86 17 62.6 35 1.4 34.6
11:45 1013 29.91 842 24.86 17 62.6 34 1.3 34.4
11:50 1013 29.91 842 24.86 17.1 62.7 35 1.5 34.6
11:55 1013 29.91 842 24.86 17 62.6 35 1.7 35
12:00 1013 29.91 842 24.86 17 62.6 34 1 33.8
12:05 1013 29.91 842 24.86 17.1 62.8 34 1.3 34.4
12:10 1013 29.91 842 24.86 17 62.6 34 1.3 34.3
12:15 1012 29.88 842 24.86 16.9 62.5 34 1.1 34
12:20 1012 29.88 842 24.86 16.9 62.5 35 1.3 34.4
12:25 1012 29.88 842 24.86 16.9 62.5 34 1.1 33.9
12:30 1012 29.88 842 24.86 17.1 62.7 33 1 33.8
12:35 1012 29.88 842 24.86 17.2 63 33 1.1 33.9
12:40 1012 29.88 842 24.86 17.2 62.9 34 1.1 34
12:45 1012 29.88 842 24.86 17.2 62.9 34 1.3 34.3
12:50 1012 29.88 842 24.86 17.2 63 34 1.3 34.3
12:55 1012 29.88 842 24.86 17.2 63 34 1.3 34.3
13:00 1012 29.88 841 24.83 17.2 63 34 1.4 34.4
13:05 1012 29.88 841 24.83 17.3 63.1 33 1.1 34
13:10 1012 29.88 841 24.83 17.4 63.3 33 1 33.9
13:15 1012 29.88 841 24.83 17.5 63.4 33 1 33.8
13:20 1012 29.88 841 24.83 17.6 63.6 32 0.7 33.3
13:25 1012 29.88 841 24.83 17.8 64 32 1 33.7
13:30 1012 29.88 841 24.83 17.9 64.2 32 0.9 33.7
13:35 1012 29.88 841 24.83 17.9 64.3 33 1.5 34.6
13:40 1011 29.85 841 24.83 17.8 64.1 34 1.8 35.2
13:45 1011 29.85 841 24.83 17.8 64 32 0.9 33.6
13:50 1011 29.85 841 24.83 18 64.3 31 0.8 33.4
13:55 1011 29.85 841 24.83 18 64.4 32 1.3 34.3
14:00 1011 29.85 840 24.81 18 64.5 32 1.1 34
14:05 1011 29.85 840 24.81 18.1 64.7 31 1.1 34
14:10 1011 29.85 840 24.81 18.2 64.7 38 3.8 38.8
14:15 1011 29.85 840 24.81 17.9 64.3 38 3.6 38.5
14:20 1011 29.85 840 24.81 17.7 63.8 39 3.7 38.7
14:25 1011 29.85 840 24.81 17.6 63.6 34 1.8 35.2
14:30 1011 29.85 840 24.81 17.6 63.7 38 3.1 37.6
14:35 1011 29.85 840 24.81 17.7 63.9 38 3.3 38
14:40 1011 29.85 840 24.81 17.8 64 39 3.8 38.8
14:45 1010 29.83 840 24.81 17.6 63.7 38 3.1 37.6
14:50 1010 29.83 840 24.81 17.6 63.7 35 2 35.6
14:55 1010 29.83 840 24.81 17.7 63.8 36 2.4 36.3
15:00 1010 29.83 840 24.81 17.7 63.8 34 1.6 34.9
15:05 1010 29.83 839 24.78 17.7 63.9 32 1.1 34
15:10 1010 29.83 839 24.78 17.5 63.5 34 1.6 34.8
15:15 1010 29.83 839 24.78 17.4 63.2 37 2.8 37
15:20 1010 29.83 839 24.78 17.2 62.9 41 3.9 39
15:25 1010 29.83 839 24.78 17.1 62.7 40 3.6 38.5
15:30 1010 29.83 839 24.78 17.1 62.9 37 2.5 36.5
15:35 1010 29.83 839 24.78 17.3 63.1 38 3 37.4
15:40 1010 29.83 839 24.78 17.4 63.3 38 3 37.4
15:45 1010 29.83 839 24.78 17.4 63.3 36 2.3 36.2
15:50 1010 29.83 839 24.78 17.5 63.4 34 1.7 35.1
15:55 1010 29.83 839 24.78 17.6 63.7 36 2.6 36.6
16:00 1010 29.83 839 24.78 17.6 63.7 35 1.9 35.5
16:05 1010 29.83 839 24.78 17.7 63.8 34 1.7 35
16:10 1009 29.8 839 24.78 17.8 64 33 1.6 34.8
16:15 1009 29.8 839 24.78 17.8 64.1 33 1.6 34.9
16:20 1009 29.8 838 24.75 17.8 64 34 1.6 34.9
16:25 1009 29.8 838 24.75 17.7 63.8 32 0.7 33.2
16:30 1009 29.8 838 24.75 17.8 64.1 32 1 33.8
16:35 1009 29.8 838 24.75 17.9 64.2 33 1.7 35.1
16:40 1009 29.8 838 24.75 17.8 64.1 36 2.7 36.9
16:45 1009 29.8 838 24.75 17.8 64 33 1.5 34.6
16:50 1009 29.8 838 24.75 17.7 63.8 39 3.6 38.4
16:55 1009 29.8 838 24.75 17.3 63.1 44 5.1 41.1
17:00 1009 29.8 838 24.75 17.4 63.3 37 2.5 36.5
17:05 1009 29.8 838 24.75 17.4 63.3 36 2.2 36
17:10 1009 29.8 838 24.75 17.3 63.1 33 1.1 34
17:15 1009 29.8 838 24.75 17.6 63.6 35 1.9 35.4
17:20 1009 29.8 838 24.75 17.4 63.3 36 2.4 36.4
17:25 1009 29.8 838 24.75 17.3 63.2 40 3.7 38.7
17:30 1008 29.77 838 24.75 17.1 62.9 36 1.9 35.4
17:35 1008 29.77 838 24.75 17.4 63.2 34 1.4 34.5
17:40 1008 29.77 838 24.75 17.4 63.3 33 0.9 33.7
17:45 1008 29.77 838 24.75 17.3 63.2 33 1.1 33.9
17:50 1008 29.77 838 24.75 17.3 63.2 37 2.6 36.8
17:55 1008 29.77 838 24.75 17.1 62.8 42 4.3 39.7
18:00 1008 29.77 838 24.75 16.5 61.6 46 5 41
18:05 1008 29.77 838 24.75 16 60.8 43 3.4 38.1
18:10 1008 29.77 838 24.75 15.9 60.5 43 3.3 37.9
18:15 1008 29.77 838 24.75 15.6 60.2 44 3.5 38.3
18:20 1009 29.8 838 24.75 15.4 59.7 44 3.3 37.9
18:25 1009 29.8 838 24.75 15.2 59.3 45 3.4 38.1
18:30 1009 29.8 838 24.75 15.1 59.2 45 3.3 37.9
18:35 1008 29.77 838 24.75 15 59 46 3.5 38.2
18:40 1009 29.8 838 24.75 14.9 58.7 47 3.6 38.5
18:45 1009 29.8 838 24.75 14.7 58.5 47 3.7 38.7
18:50 1009 29.8 838 24.75 14.7 58.4 48 3.8 38.8
18:55 1009 29.8 838 24.75 14.6 58.2 48 3.8 38.9
19:00 1009 29.8 838 24.75 14.3 57.8 51 4.4 39.9
19:05 1009 29.8 838 24.75 13.8 56.8 52 4.2 39.6
19:10 1009 29.8 838 24.75 13.8 56.9 50 3.6 38.5
19:15 1009 29.8 838 24.75 13.9 57 49 3.4 38.1
19:20 1009 29.8 838 24.75 14 57.2 49 3.4 38.2
19:25 1009 29.8 838 24.75 14 57.2 49 3.6 38.4
19:30 1009 29.8 838 24.75 14 57.2 47 2.9 37.3
19:35 1009 29.8 838 24.75 14.1 57.4 48 3.3 38
19:40 1009 29.8 838 24.75 14.1 57.3 47 3.1 37.7
19:45 1009 29.8 838 24.75 14.1 57.4 48 3.3 37.9
19:50 1008 29.77 838 24.75 14 57.1 49 3.5 38.3
19:55 1008 29.77 838 24.75 13.9 56.9 49 3.5 38.3
20:00 1008 29.77 838 24.75 13.6 56.5 51 3.8 38.8
20:05 1009 29.8 838 24.75 13.4 56 51 3.6 38.4
20:10 1009 29.8 838 24.75 13.3 56 52 3.6 38.5
20:15 1009 29.8 838 24.75 13.3 56 51 3.6 38.4
20:20 1009 29.8 838 24.75 13.3 55.9 52 3.6 38.5
20:25 1009 29.8 838 24.75 13.2 55.8 52 3.7 38.7
20:30 1008 29.77 838 24.75 13.2 55.7 55 4.3 39.7
20:35 1008 29.77 837 24.72 12.7 54.8 56 4.3 39.7
20:40 1008 29.77 837 24.72 12.4 54.4 58 4.4 39.8
20:45 1008 29.77 837 24.72 12.4 54.3 57 4.1 39.4
20:50 1008 29.77 837 24.72 12.6 54.7 54 3.7 38.7
20:55 1008 29.77 837 24.72 12.9 55.2 53 3.7 38.7
21:00 1008 29.77 837 24.72 13 55.4 53 3.8 38.8
21:05 1008 29.77 838 24.75 13 55.5 55 4.2 39.6
21:10 1008 29.77 838 24.75 13 55.3 56 4.4 39.9
21:15 1008 29.77 837 24.72 12.8 55 55 4 39.2
21:20 1008 29.77 838 24.75 12.7 54.9 57 4.3 39.8
21:25 1008 29.77 838 24.75 12.6 54.7 59 4.9 40.8
21:30 1009 29.8 838 24.75 12.4 54.4 63 5.6 42
21:35 1008 29.77 838 24.75 12.2 53.9 62 5.1 41.3
21:40 1008 29.77 838 24.75 11.9 53.5 61 4.8 40.7
21:45 1008 29.77 838 24.75 11.7 53 66 5.5 41.9
21:50 1008 29.77 837 24.72 11.2 52.2 66 5.1 41.3
21:55 1008 29.77 837 24.72 11.2 52.2 67 5.4 41.8
22:00 1008 29.77 837 24.72 11.2 52.1 66 5 41.1
22:05 1008 29.77 837 24.72 11.3 52.3 65 5 41.1
22:10 1008 29.77 837 24.72 11.5 52.7 64 5.1 41.1
22:15 1008 29.77 837 24.72 11.5 52.7 66 5.5 41.9
22:20 1008 29.77 837 24.72 11.3 52.3 64 4.8 40.6
22:25 1008 29.77 837 24.72 11.5 52.6 64 4.9 40.9
22:30 1008 29.77 837 24.72 11.6 52.9 66 5.5 41.9
22:35 1008 29.77 837 24.72 11.3 52.3 67 5.4 41.7
22:40 1008 29.77 837 24.72 11.1 52 67 5.2 41.4
22:45 1008 29.77 837 24.72 11 51.8 68 5.4 41.7
22:50 1008 29.77 837 24.72 10.8 51.4 67 4.9 40.8
22:55 1008 29.77 837 24.72 11.1 52.1 63 4.5 40.1
23:00 1008 29.77 837 24.72 11.4 52.5 63 4.7 40.4
23:05 1008 29.77 837 24.72 11.4 52.5 63 4.6 40.3
23:10 1007 29.74 837 24.72 11.4 52.6 61 4.2 39.5
23:15 1007 29.74 837 24.72 11.6 52.9 60 4.3 39.7
23:20 1007 29.74 837 24.72 11.7 53.1 57 3.7 38.6
23:25 1007 29.74 837 24.72 11.9 53.3 60 4.4 39.8
23:30 1007 29.74 837 24.72 11.6 52.9 59 4 39.3
23:35 1007 29.74 837 24.72 11.7 53.1 59 4 39.2
23:40 1008 29.77 837 24.72 11.7 53.1 59 4.1 39.4
23:45 1007 29.74 837 24.72 11.8 53.2 60 4.2 39.5
23:50 1008 29.77 837 24.72 11.7 53.1 59 4.1 39.4
23:55 1008 29.77 837 24.72 11.7 53 62 4.6 40.4
24:00 1008 29.77 837 24.72 11.5 52.6 62 4.4 39.9